sensor_id;sensor_type;location;lat;lon;timestamp;P1;P2;P0
57049;PMS7003;42935;50.966;16.992;2023-05-10T00:00:23;19;17;13
57049;PMS7003;42935;50.966;16.992;2023-05-10T00:03:44;23;19;15
57049;PMS7003;42935;50.966;16.992;2023-05-10T00:07:05;20;18;12
57049;PMS7003;42935;50.966;16.992;2023-05-10T00:10:32;23;20;14
57049;PMS7003;42935;50.966;16.992;2023-05-10T00:13:56;25;19;13
57049;PMS7003;42935;50.966;16.992;2023-05-10T00:17:20;26;21;13
57049;PMS7003;42935;50.966;16.992;2023-05-10T00:20:40;22;18;13
57049;PMS7003;42935;50.966;16.992;2023-05-10T00:24:00;23;22;16
57049;PMS7003;42935;50.966;16.992;2023-05-10T00:27:20;21;20;15
57049;PMS7003;42935;50.966;16.992;2023-05-10T00:30:42;25;21;14
57049;PMS7003;42935;50.966;16.992;2023-05-10T00:34:06;24;20;13
57049;PMS7003;42935;50.966;16.992;2023-05-10T00:37:30;22;20;14
57049;PMS7003;42935;50.966;16.992;2023-05-10T00:40:52;28;23;17
57049;PMS7003;42935;50.966;16.992;2023-05-10T00:44:13;28;22;15
57049;PMS7003;42935;50.966;16.992;2023-05-10T00:47:31;24;22;16
57049;PMS7003;42935;50.966;16.992;2023-05-10T00:50:52;29;24;15
57049;PMS7003;42935;50.966;16.992;2023-05-10T00:54:14;22;18;14
57049;PMS7003;42935;50.966;16.992;2023-05-10T00:57:38;24;22;16
57049;PMS7003;42935;50.966;16.992;2023-05-10T01:00:58;34;26;15
57049;PMS7003;42935;50.966;16.992;2023-05-10T01:04:18;25;22;15
57049;PMS7003;42935;50.966;16.992;2023-05-10T01:07:49;24;19;14
57049;PMS7003;42935;50.966;16.992;2023-05-10T01:11:14;22;18;14
57049;PMS7003;42935;50.966;16.992;2023-05-10T01:14:31;22;21;16
57049;PMS7003;42935;50.966;16.992;2023-05-10T01:17:54;29;23;16
57049;PMS7003;42935;50.966;16.992;2023-05-10T01:21:20;22;18;13
57049;PMS7003;42935;50.966;16.992;2023-05-10T01:32:05;27;21;15
57049;PMS7003;42935;50.966;16.992;2023-05-10T01:42:47;19;14;10
57049;PMS7003;42935;50.966;16.992;2023-05-10T01:46:09;27;22;15
57049;PMS7003;42935;50.966;16.992;2023-05-10T01:49:37;20;15;11
57049;PMS7003;42935;50.966;16.992;2023-05-10T01:53:02;21;13;10
57049;PMS7003;42935;50.966;16.992;2023-05-10T01:56:23;22;20;14
57049;PMS7003;42935;50.966;16.992;2023-05-10T01:59:43;23;21;15
57049;PMS7003;42935;50.966;16.992;2023-05-10T02:03:07;23;19;15
57049;PMS7003;42935;50.966;16.992;2023-05-10T02:06:29;15;13;10
57049;PMS7003;42935;50.966;16.992;2023-05-10T02:09:46;22;19;13
57049;PMS7003;42935;50.966;16.992;2023-05-10T02:13:07;19;15;12
57049;PMS7003;42935;50.966;16.992;2023-05-10T02:16:30;26;21;14
57049;PMS7003;42935;50.966;16.992;2023-05-10T02:19:51;25;16;12
57049;PMS7003;42935;50.966;16.992;2023-05-10T02:23:15;26;17;13
57049;PMS7003;42935;50.966;16.992;2023-05-10T02:26:35;17;14;11
57049;PMS7003;42935;50.966;16.992;2023-05-10T02:29:56;17;14;10
57049;PMS7003;42935;50.966;16.992;2023-05-10T02:33:17;20;18;13
57049;PMS7003;42935;50.966;16.992;2023-05-10T02:36:39;22;20;15
57049;PMS7003;42935;50.966;16.992;2023-05-10T02:40:02;18;16;12
57049;PMS7003;42935;50.966;16.992;2023-05-10T02:43:24;19;14;10
57049;PMS7003;42935;50.966;16.992;2023-05-10T02:46:51;24;20;14
57049;PMS7003;42935;50.966;16.992;2023-05-10T02:50:19;18;13;10
57049;PMS7003;42935;50.966;16.992;2023-05-10T02:53:46;25;20;13
57049;PMS7003;42935;50.966;16.992;2023-05-10T02:57:05;23;19;13
57049;PMS7003;42935;50.966;16.992;2023-05-10T03:00:59;31;23;16
57049;PMS7003;42935;50.966;16.992;2023-05-10T03:04:16;23;20;15
57049;PMS7003;42935;50.966;16.992;2023-05-10T03:07:36;18;15;11
57049;PMS7003;42935;50.966;16.992;2023-05-10T03:18:06;24;18;12
57049;PMS7003;42935;50.966;16.992;2023-05-10T03:21:29;26;18;13
57049;PMS7003;42935;50.966;16.992;2023-05-10T03:25:03;26;21;15
57049;PMS7003;42935;50.966;16.992;2023-05-10T03:28:25;23;19;15
57049;PMS7003;42935;50.966;16.992;2023-05-10T03:31:45;24;22;16
57049;PMS7003;42935;50.966;16.992;2023-05-10T03:35:12;27;23;15
57049;PMS7003;42935;50.966;16.992;2023-05-10T03:38:30;22;20;14
57049;PMS7003;42935;50.966;16.992;2023-05-10T03:41:55;20;16;12
57049;PMS7003;42935;50.966;16.992;2023-05-10T03:45:19;23;20;15
57049;PMS7003;42935;50.966;16.992;2023-05-10T03:48:39;21;17;12
57049;PMS7003;42935;50.966;16.992;2023-05-10T03:51:59;26;19;13
57049;PMS7003;42935;50.966;16.992;2023-05-10T03:55:21;21;14;10
57049;PMS7003;42935;50.966;16.992;2023-05-10T03:58:41;25;16;13
57049;PMS7003;42935;50.966;16.992;2023-05-10T04:02:31;31;25;16
57049;PMS7003;42935;50.966;16.992;2023-05-10T04:09:22;25;16;12
57049;PMS7003;42935;50.966;16.992;2023-05-10T04:12:47;24;18;11
57049;PMS7003;42935;50.966;16.992;2023-05-10T04:16:02;27;19;13
57049;PMS7003;42935;50.966;16.992;2023-05-10T04:19:20;23;19;12
57049;PMS7003;42935;50.966;16.992;2023-05-10T04:22:40;24;19;12
57049;PMS7003;42935;50.966;16.992;2023-05-10T04:26:05;26;21;14
57049;PMS7003;42935;50.966;16.992;2023-05-10T04:29:32;28;23;15
57049;PMS7003;42935;50.966;16.992;2023-05-10T04:32:52;20;16;12
57049;PMS7003;42935;50.966;16.992;2023-05-10T04:36:11;31;22;15
57049;PMS7003;42935;50.966;16.992;2023-05-10T04:39:31;27;23;14
57049;PMS7003;42935;50.966;16.992;2023-05-10T04:42:49;27;22;16
57049;PMS7003;42935;50.966;16.992;2023-05-10T04:46:40;28;23;15
57049;PMS7003;42935;50.966;16.992;2023-05-10T04:49:59;28;19;14
57049;PMS7003;42935;50.966;16.992;2023-05-10T04:53:21;21;17;12
57049;PMS7003;42935;50.966;16.992;2023-05-10T04:56:55;28;23;16
57049;PMS7003;42935;50.966;16.992;2023-05-10T05:00:44;24;22;17
57049;PMS7003;42935;50.966;16.992;2023-05-10T05:04:05;26;21;15
57049;PMS7003;42935;50.966;16.992;2023-05-10T05:07:29;29;25;16
57049;PMS7003;42935;50.966;16.992;2023-05-10T05:10:49;24;18;13
57049;PMS7003;42935;50.966;16.992;2023-05-10T05:14:09;20;19;15
57049;PMS7003;42935;50.966;16.992;2023-05-10T05:17:33;22;19;14
57049;PMS7003;42935;50.966;16.992;2023-05-10T05:21:02;25;23;15
57049;PMS7003;42935;50.966;16.992;2023-05-10T05:24:21;27;22;14
57049;PMS7003;42935;50.966;16.992;2023-05-10T05:27:49;27;23;16
57049;PMS7003;42935;50.966;16.992;2023-05-10T05:31:09;23;20;15
57049;PMS7003;42935;50.966;16.992;2023-05-10T05:35:00;22;20;13
57049;PMS7003;42935;50.966;16.992;2023-05-10T05:38:19;22;20;15
57049;PMS7003;42935;50.966;16.992;2023-05-10T05:41:36;27;23;16
57049;PMS7003;42935;50.966;16.992;2023-05-10T05:45:03;30;23;14
57049;PMS7003;42935;50.966;16.992;2023-05-10T05:48:30;25;22;15
57049;PMS7003;42935;50.966;16.992;2023-05-10T05:51:48;24;22;16
57049;PMS7003;42935;50.966;16.992;2023-05-10T05:55:39;23;21;15
57049;PMS7003;42935;50.966;16.992;2023-05-10T05:58:58;23;18;14
57049;PMS7003;42935;50.966;16.992;2023-05-10T06:02:45;27;23;14
57049;PMS7003;42935;50.966;16.992;2023-05-10T06:06:05;20;18;14
57049;PMS7003;42935;50.966;16.992;2023-05-10T06:09:25;17;16;12
57049;PMS7003;42935;50.966;16.992;2023-05-10T06:12:46;18;15;12
57049;PMS7003;42935;50.966;16.992;2023-05-10T06:16:06;19;17;12
57049;PMS7003;42935;50.966;16.992;2023-05-10T06:19:26;19;16;12
57049;PMS7003;42935;50.966;16.992;2023-05-10T06:22:46;19;18;13
57049;PMS7003;42935;50.966;16.992;2023-05-10T06:26:15;22;18;12
57049;PMS7003;42935;50.966;16.992;2023-05-10T06:29:39;19;17;10
57049;PMS7003;42935;50.966;16.992;2023-05-10T06:32:59;21;15;11
57049;PMS7003;42935;50.966;16.992;2023-05-10T06:36:16;18;13;10
57049;PMS7003;42935;50.966;16.992;2023-05-10T06:39:33;21;14;9
57049;PMS7003;42935;50.966;16.992;2023-05-10T06:42:52;17;14;10
57049;PMS7003;42935;50.966;16.992;2023-05-10T06:46:12;15;12;9
57049;PMS7003;42935;50.966;16.992;2023-05-10T06:49:33;18;13;10
57049;PMS7003;42935;50.966;16.992;2023-05-10T06:52:50;15;14;10
57049;PMS7003;42935;50.966;16.992;2023-05-10T06:56:10;17;14;10
57049;PMS7003;42935;50.966;16.992;2023-05-10T06:59:31;15;12;8
57049;PMS7003;42935;50.966;16.992;2023-05-10T07:02:50;14;13;10
57049;PMS7003;42935;50.966;16.992;2023-05-10T07:06:14;13;12;9
57049;PMS7003;42935;50.966;16.992;2023-05-10T07:10:05;15;12;9
57049;PMS7003;42935;50.966;16.992;2023-05-10T07:13:26;16;11;8
57049;PMS7003;42935;50.966;16.992;2023-05-10T07:16:47;13;11;7
57049;PMS7003;42935;50.966;16.992;2023-05-10T07:20:08;11;11;8
57049;PMS7003;42935;50.966;16.992;2023-05-10T07:23:25;11;10;8
57049;PMS7003;42935;50.966;16.992;2023-05-10T07:26:45;13;10;8
57049;PMS7003;42935;50.966;16.992;2023-05-10T07:30:06;11;9;7
57049;PMS7003;42935;50.966;16.992;2023-05-10T07:33:27;13;10;7
57049;PMS7003;42935;50.966;16.992;2023-05-10T07:36:47;11;9;8
57049;PMS7003;42935;50.966;16.992;2023-05-10T07:40:06;11;11;8
57049;PMS7003;42935;50.966;16.992;2023-05-10T07:43:23;12;10;8
57049;PMS7003;42935;50.966;16.992;2023-05-10T07:47:17;8;8;6
57049;PMS7003;42935;50.966;16.992;2023-05-10T07:50:36;10;9;7
57049;PMS7003;42935;50.966;16.992;2023-05-10T07:54:25;12;10;7
57049;PMS7003;42935;50.966;16.992;2023-05-10T07:57:41;10;9;6
57049;PMS7003;42935;50.966;16.992;2023-05-10T08:01:01;9;9;7
57049;PMS7003;42935;50.966;16.992;2023-05-10T08:04:22;9;9;7
57049;PMS7003;42935;50.966;16.992;2023-05-10T08:07:49;9;8;6
57049;PMS7003;42935;50.966;16.992;2023-05-10T08:11:10;9;8;7
57049;PMS7003;42935;50.966;16.992;2023-05-10T08:14:32;8;8;6
57049;PMS7003;42935;50.966;16.992;2023-05-10T08:17:55;9;8;7
57049;PMS7003;42935;50.966;16.992;2023-05-10T08:21:44;10;10;7
57049;PMS7003;42935;50.966;16.992;2023-05-10T08:25:38;12;9;6
57049;PMS7003;42935;50.966;16.992;2023-05-10T08:29:02;9;9;6
57049;PMS7003;42935;50.966;16.992;2023-05-10T08:32:24;8;8;6
57049;PMS7003;42935;50.966;16.992;2023-05-10T08:35:42;13;9;7
57049;PMS7003;42935;50.966;16.992;2023-05-10T08:39:02;10;7;6
57049;PMS7003;42935;50.966;16.992;2023-05-10T08:42:25;10;9;6
57049;PMS7003;42935;50.966;16.992;2023-05-10T08:45:45;9;8;6
57049;PMS7003;42935;50.966;16.992;2023-05-10T08:49:10;10;8;7
57049;PMS7003;42935;50.966;16.992;2023-05-10T08:52:32;11;9;7
57049;PMS7003;42935;50.966;16.992;2023-05-10T08:55:58;9;8;6
57049;PMS7003;42935;50.966;16.992;2023-05-10T08:59:19;11;8;7
57049;PMS7003;42935;50.966;16.992;2023-05-10T09:03:09;10;8;6
57049;PMS7003;42935;50.966;16.992;2023-05-10T09:06:27;9;7;6
57049;PMS7003;42935;50.966;16.992;2023-05-10T09:09:48;10;9;7
57049;PMS7003;42935;50.966;16.992;2023-05-10T09:13:12;11;10;7
57049;PMS7003;42935;50.966;16.992;2023-05-10T09:16:40;11;9;6
57049;PMS7003;42935;50.966;16.992;2023-05-10T09:20:00;11;8;6
57049;PMS7003;42935;50.966;16.992;2023-05-10T09:23:18;11;10;7
57049;PMS7003;42935;50.966;16.992;2023-05-10T09:30:07;6;6;5
57049;PMS7003;42935;50.966;16.992;2023-05-10T09:33:30;8;7;7
57049;PMS7003;42935;50.966;16.992;2023-05-10T09:37:01;9;9;6
57049;PMS7003;42935;50.966;16.992;2023-05-10T09:40:25;10;7;6
57049;PMS7003;42935;50.966;16.992;2023-05-10T09:43:42;9;7;6
57049;PMS7003;42935;50.966;16.992;2023-05-10T09:47:08;11;9;7
57049;PMS7003;42935;50.966;16.992;2023-05-10T09:50:24;12;8;6
57049;PMS7003;42935;50.966;16.992;2023-05-10T09:53:45;10;8;7
57049;PMS7003;42935;50.966;16.992;2023-05-10T09:57:02;7;6;5
57049;PMS7003;42935;50.966;16.992;2023-05-10T10:00:24;9;8;6
57049;PMS7003;42935;50.966;16.992;2023-05-10T10:03:41;7;7;6
57049;PMS7003;42935;50.966;16.992;2023-05-10T10:07:02;9;9;7
57049;PMS7003;42935;50.966;16.992;2023-05-10T10:10:24;11;9;7
57049;PMS7003;42935;50.966;16.992;2023-05-10T10:14:19;8;7;6
57049;PMS7003;42935;50.966;16.992;2023-05-10T10:17:39;11;9;8
57049;PMS7003;42935;50.966;16.992;2023-05-10T10:20:59;8;8;7
57049;PMS7003;42935;50.966;16.992;2023-05-10T10:24:17;8;8;6
57049;PMS7003;42935;50.966;16.992;2023-05-10T10:27:43;6;6;5
57049;PMS7003;42935;50.966;16.992;2023-05-10T10:31:47;11;9;7
57049;PMS7003;42935;50.966;16.992;2023-05-10T10:35:14;13;8;7
57049;PMS7003;42935;50.966;16.992;2023-05-10T10:42:12;9;7;5
57049;PMS7003;42935;50.966;16.992;2023-05-10T10:45:32;8;7;6
57049;PMS7003;42935;50.966;16.992;2023-05-10T10:49:09;9;7;6
57049;PMS7003;42935;50.966;16.992;2023-05-10T10:52:23;9;8;7
57049;PMS7003;42935;50.966;16.992;2023-05-10T10:55:53;11;8;7
57049;PMS7003;42935;50.966;16.992;2023-05-10T10:59:28;7;6;6
57049;PMS7003;42935;50.966;16.992;2023-05-10T11:02:58;8;7;6
57049;PMS7003;42935;50.966;16.992;2023-05-10T11:09:51;7;6;5
57049;PMS7003;42935;50.966;16.992;2023-05-10T11:13:13;7;6;5
57049;PMS7003;42935;50.966;16.992;2023-05-10T11:23:47;6;5;4
57049;PMS7003;42935;50.966;16.992;2023-05-10T11:26:56;7;6;5
57049;PMS7003;42935;50.966;16.992;2023-05-10T11:30:17;6;6;5
57049;PMS7003;42935;50.966;16.992;2023-05-10T11:37:08;6;6;5
57049;PMS7003;42935;50.966;16.992;2023-05-10T11:40:29;6;5;5
57049;PMS7003;42935;50.966;16.992;2023-05-10T11:43:50;5;5;4
57049;PMS7003;42935;50.966;16.992;2023-05-10T11:47:13;7;7;6
57049;PMS7003;42935;50.966;16.992;2023-05-10T11:50:29;7;6;5
57049;PMS7003;42935;50.966;16.992;2023-05-10T11:53:49;8;6;5
57049;PMS7003;42935;50.966;16.992;2023-05-10T11:57:14;7;5;4
57049;PMS7003;42935;50.966;16.992;2023-05-10T12:00:34;6;6;6
57049;PMS7003;42935;50.966;16.992;2023-05-10T12:03:50;6;6;5
57049;PMS7003;42935;50.966;16.992;2023-05-10T12:07:08;6;6;5
57049;PMS7003;42935;50.966;16.992;2023-05-10T12:10:27;6;6;5
57049;PMS7003;42935;50.966;16.992;2023-05-10T12:13:46;5;5;5
57049;PMS7003;42935;50.966;16.992;2023-05-10T12:17:03;6;6;5
57049;PMS7003;42935;50.966;16.992;2023-05-10T12:20:22;7;7;5
57049;PMS7003;42935;50.966;16.992;2023-05-10T12:23:43;6;5;4
57049;PMS7003;42935;50.966;16.992;2023-05-10T12:27:07;6;6;5
57049;PMS7003;42935;50.966;16.992;2023-05-10T12:30:26;7;5;5
57049;PMS7003;42935;50.966;16.992;2023-05-10T12:33:58;6;6;6
57049;PMS7003;42935;50.966;16.992;2023-05-10T12:37:23;6;5;5
57049;PMS7003;42935;50.966;16.992;2023-05-10T12:40:48;7;6;5
57049;PMS7003;42935;50.966;16.992;2023-05-10T12:44:12;6;6;5
57049;PMS7003;42935;50.966;16.992;2023-05-10T12:47:28;8;5;4
57049;PMS7003;42935;50.966;16.992;2023-05-10T12:50:48;5;5;5
57049;PMS7003;42935;50.966;16.992;2023-05-10T12:54:08;6;5;4
57049;PMS7003;42935;50.966;16.992;2023-05-10T12:57:29;5;5;3
57049;PMS7003;42935;50.966;16.992;2023-05-10T13:00:48;5;5;4
57049;PMS7003;42935;50.966;16.992;2023-05-10T13:04:10;5;4;4
57049;PMS7003;42935;50.966;16.992;2023-05-10T13:07:29;6;4;4
57049;PMS7003;42935;50.966;16.992;2023-05-10T13:10:47;6;6;5
57049;PMS7003;42935;50.966;16.992;2023-05-10T13:14:36;6;5;4
57049;PMS7003;42935;50.966;16.992;2023-05-10T13:17:59;5;4;4
57049;PMS7003;42935;50.966;16.992;2023-05-10T13:21:19;4;4;4
57049;PMS7003;42935;50.966;16.992;2023-05-10T13:24:44;5;4;4
57049;PMS7003;42935;50.966;16.992;2023-05-10T13:28:02;5;5;4
57049;PMS7003;42935;50.966;16.992;2023-05-10T13:31:21;8;4;4
57049;PMS7003;42935;50.966;16.992;2023-05-10T13:34:37;7;6;4
57049;PMS7003;42935;50.966;16.992;2023-05-10T13:37:53;5;3;3
57049;PMS7003;42935;50.966;16.992;2023-05-10T13:41:18;7;6;4
57049;PMS7003;42935;50.966;16.992;2023-05-10T13:44:39;4;4;3
57049;PMS7003;42935;50.966;16.992;2023-05-10T13:48:00;4;4;3
57049;PMS7003;42935;50.966;16.992;2023-05-10T13:51:27;7;4;4
57049;PMS7003;42935;50.966;16.992;2023-05-10T13:54:50;6;5;4
57049;PMS7003;42935;50.966;16.992;2023-05-10T13:58:43;5;4;3
57049;PMS7003;42935;50.966;16.992;2023-05-10T14:02:04;5;4;4
57049;PMS7003;42935;50.966;16.992;2023-05-10T14:05:25;6;5;5
57049;PMS7003;42935;50.966;16.992;2023-05-10T14:08:44;6;5;4
57049;PMS7003;42935;50.966;16.992;2023-05-10T14:12:35;5;5;4
57049;PMS7003;42935;50.966;16.992;2023-05-10T14:15:56;6;5;4
57049;PMS7003;42935;50.966;16.992;2023-05-10T14:19:14;6;5;4
57049;PMS7003;42935;50.966;16.992;2023-05-10T14:22:34;5;5;4
57049;PMS7003;42935;50.966;16.992;2023-05-10T14:25:55;5;4;3
57049;PMS7003;42935;50.966;16.992;2023-05-10T14:29:15;7;6;4
57049;PMS7003;42935;50.966;16.992;2023-05-10T14:32:34;6;5;4
57049;PMS7003;42935;50.966;16.992;2023-05-10T14:35:56;5;5;5
57049;PMS7003;42935;50.966;16.992;2023-05-10T14:39:18;5;5;4
57049;PMS7003;42935;50.966;16.992;2023-05-10T14:42:38;5;5;4
57049;PMS7003;42935;50.966;16.992;2023-05-10T14:45:59;5;4;3
57049;PMS7003;42935;50.966;16.992;2023-05-10T14:49:20;5;4;4
57049;PMS7003;42935;50.966;16.992;2023-05-10T14:52:39;5;4;4
57049;PMS7003;42935;50.966;16.992;2023-05-10T14:56:31;4;4;3
57049;PMS7003;42935;50.966;16.992;2023-05-10T14:59:51;4;4;4
57049;PMS7003;42935;50.966;16.992;2023-05-10T15:03:12;4;4;3
57049;PMS7003;42935;50.966;16.992;2023-05-10T15:06:30;6;3;3
57049;PMS7003;42935;50.966;16.992;2023-05-10T15:09:50;6;4;4
57049;PMS7003;42935;50.966;16.992;2023-05-10T15:13:12;4;4;3
57049;PMS7003;42935;50.966;16.992;2023-05-10T15:16:31;4;4;3
57049;PMS7003;42935;50.966;16.992;2023-05-10T15:19:51;5;4;3
57049;PMS7003;42935;50.966;16.992;2023-05-10T15:23:42;4;4;3
57049;PMS7003;42935;50.966;16.992;2023-05-10T15:27:07;4;4;3
57049;PMS7003;42935;50.966;16.992;2023-05-10T15:30:28;5;4;3
57049;PMS7003;42935;50.966;16.992;2023-05-10T15:34:20;5;5;4
57049;PMS7003;42935;50.966;16.992;2023-05-10T15:37:40;4;4;4
57049;PMS7003;42935;50.966;16.992;2023-05-10T15:40:58;5;5;5
57049;PMS7003;42935;50.966;16.992;2023-05-10T15:44:15;5;4;3
57049;PMS7003;42935;50.966;16.992;2023-05-10T15:47:37;5;4;4
57049;PMS7003;42935;50.966;16.992;2023-05-10T15:50:59;4;3;3
57049;PMS7003;42935;50.966;16.992;2023-05-10T15:54:16;4;3;2
57049;PMS7003;42935;50.966;16.992;2023-05-10T15:57:43;6;3;3
57049;PMS7003;42935;50.966;16.992;2023-05-10T16:01:04;4;3;3
57049;PMS7003;42935;50.966;16.992;2023-05-10T16:04:23;3;3;3
57049;PMS7003;42935;50.966;16.992;2023-05-10T16:08:15;5;4;3
57049;PMS7003;42935;50.966;16.992;2023-05-10T16:12:06;5;3;3
57049;PMS7003;42935;50.966;16.992;2023-05-10T16:15:25;5;3;3
57049;PMS7003;42935;50.966;16.992;2023-05-10T16:18:46;5;4;3
57049;PMS7003;42935;50.966;16.992;2023-05-10T16:22:08;4;4;3
57049;PMS7003;42935;50.966;16.992;2023-05-10T16:25:29;4;4;3
57049;PMS7003;42935;50.966;16.992;2023-05-10T16:29:22;4;4;3
57049;PMS7003;42935;50.966;16.992;2023-05-10T16:32:43;4;4;3
57049;PMS7003;42935;50.966;16.992;2023-05-10T16:35:59;4;4;3
57049;PMS7003;42935;50.966;16.992;2023-05-10T16:39:19;5;4;3
57049;PMS7003;42935;50.966;16.992;2023-05-10T16:42:42;5;4;3
57049;PMS7003;42935;50.966;16.992;2023-05-10T16:46:10;4;3;3
57049;PMS7003;42935;50.966;16.992;2023-05-10T16:49:30;5;4;4
57049;PMS7003;42935;50.966;16.992;2023-05-10T16:52:54;12;7;5
57049;PMS7003;42935;50.966;16.992;2023-05-10T16:56:14;8;5;4
57049;PMS7003;42935;50.966;16.992;2023-05-10T16:59:36;5;5;4
57049;PMS7003;42935;50.966;16.992;2023-05-10T17:02:55;5;5;4
57049;PMS7003;42935;50.966;16.992;2023-05-10T17:06:15;6;5;4
57049;PMS7003;42935;50.966;16.992;2023-05-10T17:10:09;6;5;4
57049;PMS7003;42935;50.966;16.992;2023-05-10T17:13:59;9;5;4
57049;PMS7003;42935;50.966;16.992;2023-05-10T17:17:20;7;6;5
57049;PMS7003;42935;50.966;16.992;2023-05-10T17:20:42;5;5;4
57049;PMS7003;42935;50.966;16.992;2023-05-10T17:24:01;6;5;5
57049;PMS7003;42935;50.966;16.992;2023-05-10T17:27:22;7;5;4
57049;PMS7003;42935;50.966;16.992;2023-05-10T17:30:44;6;6;5
57049;PMS7003;42935;50.966;16.992;2023-05-10T17:34:04;7;6;5
57049;PMS7003;42935;50.966;16.992;2023-05-10T17:37:24;7;6;5
57049;PMS7003;42935;50.966;16.992;2023-05-10T17:40:44;7;6;5
57049;PMS7003;42935;50.966;16.992;2023-05-10T17:44:04;8;7;5
57049;PMS7003;42935;50.966;16.992;2023-05-10T17:47:25;6;6;5
57049;PMS7003;42935;50.966;16.992;2023-05-10T17:50:45;7;6;5
57049;PMS7003;42935;50.966;16.992;2023-05-10T17:54:09;8;7;6
57049;PMS7003;42935;50.966;16.992;2023-05-10T17:57:59;8;6;6
57049;PMS7003;42935;50.966;16.992;2023-05-10T18:01:19;8;8;6
57049;PMS7003;42935;50.966;16.992;2023-05-10T18:04:39;7;7;6
57049;PMS7003;42935;50.966;16.992;2023-05-10T18:07:56;9;8;7
57049;PMS7003;42935;50.966;16.992;2023-05-10T18:11:16;10;7;6
57049;PMS7003;42935;50.966;16.992;2023-05-10T18:14:37;9;8;6
57049;PMS7003;42935;50.966;16.992;2023-05-10T18:18:28;10;8;7
57049;PMS7003;42935;50.966;16.992;2023-05-10T18:22:18;10;8;7
57049;PMS7003;42935;50.966;16.992;2023-05-10T18:25:50;9;8;6
57049;PMS7003;42935;50.966;16.992;2023-05-10T18:29:45;10;9;7
57049;PMS7003;42935;50.966;16.992;2023-05-10T18:34:52;12;9;8
57049;PMS7003;42935;50.966;16.992;2023-05-10T18:38:13;10;9;6
57049;PMS7003;42935;50.966;16.992;2023-05-10T18:41:33;11;10;7
57049;PMS7003;42935;50.966;16.992;2023-05-10T18:44:53;11;10;7
57049;PMS7003;42935;50.966;16.992;2023-05-10T18:48:43;11;10;8
57049;PMS7003;42935;50.966;16.992;2023-05-10T18:52:45;11;9;8
57049;PMS7003;42935;50.966;16.992;2023-05-10T18:56:34;14;10;9
57049;PMS7003;42935;50.966;16.992;2023-05-10T19:00:30;14;12;9
57049;PMS7003;42935;50.966;16.992;2023-05-10T19:03:50;14;10;7
57049;PMS7003;42935;50.966;16.992;2023-05-10T19:07:18;12;10;8
57049;PMS7003;42935;50.966;16.992;2023-05-10T19:11:09;13;12;9
57049;PMS7003;42935;50.966;16.992;2023-05-10T19:15:03;13;11;9
57049;PMS7003;42935;50.966;16.992;2023-05-10T19:18:53;14;10;8
57049;PMS7003;42935;50.966;16.992;2023-05-10T19:22:14;12;11;9
57049;PMS7003;42935;50.966;16.992;2023-05-10T19:25:49;14;13;9
57049;PMS7003;42935;50.966;16.992;2023-05-10T19:34:05;11;10;8
57049;PMS7003;42935;50.966;16.992;2023-05-10T19:37:29;10;10;8
57049;PMS7003;42935;50.966;16.992;2023-05-10T19:40:53;12;11;9
57049;PMS7003;42935;50.966;16.992;2023-05-10T19:44:16;12;12;9
57049;PMS7003;42935;50.966;16.992;2023-05-10T19:47:36;15;14;10
57049;PMS7003;42935;50.966;16.992;2023-05-10T19:51:01;14;13;10
57049;PMS7003;42935;50.966;16.992;2023-05-10T19:54:18;16;13;10
57049;PMS7003;42935;50.966;16.992;2023-05-10T19:57:37;14;13;11
57049;PMS7003;42935;50.966;16.992;2023-05-10T20:00:58;16;14;10
57049;PMS7003;42935;50.966;16.992;2023-05-10T20:04:16;14;12;9
57049;PMS7003;42935;50.966;16.992;2023-05-10T20:07:34;18;15;11
57049;PMS7003;42935;50.966;16.992;2023-05-10T20:10:55;17;16;12
57049;PMS7003;42935;50.966;16.992;2023-05-10T20:14:17;17;16;11
57049;PMS7003;42935;50.966;16.992;2023-05-10T20:17:34;24;19;13
57049;PMS7003;42935;50.966;16.992;2023-05-10T20:20:56;24;20;14
57049;PMS7003;42935;50.966;16.992;2023-05-10T20:24:21;36;29;20
57049;PMS7003;42935;50.966;16.992;2023-05-10T20:28:13;40;30;20
57049;PMS7003;42935;50.966;16.992;2023-05-10T20:31:37;38;30;18
57049;PMS7003;42935;50.966;16.992;2023-05-10T20:34:57;34;25;17
57049;PMS7003;42935;50.966;16.992;2023-05-10T20:38:24;35;29;19
57049;PMS7003;42935;50.966;16.992;2023-05-10T20:41:48;32;25;17
57049;PMS7003;42935;50.966;16.992;2023-05-10T20:45:09;37;29;18
57049;PMS7003;42935;50.966;16.992;2023-05-10T20:48:30;36;29;20
57049;PMS7003;42935;50.966;16.992;2023-05-10T20:51:48;44;33;22
57049;PMS7003;42935;50.966;16.992;2023-05-10T20:55:14;41;33;21
57049;PMS7003;42935;50.966;16.992;2023-05-10T20:58:34;31;26;17
57049;PMS7003;42935;50.966;16.992;2023-05-10T21:01:55;24;22;16
57049;PMS7003;42935;50.966;16.992;2023-05-10T21:05:13;32;26;19
57049;PMS7003;42935;50.966;16.992;2023-05-10T21:08:37;30;25;18
57049;PMS7003;42935;50.966;16.992;2023-05-10T21:11:52;26;25;17
57049;PMS7003;42935;50.966;16.992;2023-05-10T21:15:12;27;23;16
57049;PMS7003;42935;50.966;16.992;2023-05-10T21:19:00;28;23;16
57049;PMS7003;42935;50.966;16.992;2023-05-10T21:22:20;26;23;16
57049;PMS7003;42935;50.966;16.992;2023-05-10T21:25:40;27;21;16
57049;PMS7003;42935;50.966;16.992;2023-05-10T21:29:01;26;22;17
57049;PMS7003;42935;50.966;16.992;2023-05-10T21:32:29;29;22;15
57049;PMS7003;42935;50.966;16.992;2023-05-10T21:35:49;27;23;16
57049;PMS7003;42935;50.966;16.992;2023-05-10T21:39:13;25;23;17
57049;PMS7003;42935;50.966;16.992;2023-05-10T21:43:26;20;19;14
57049;PMS7003;42935;50.966;16.992;2023-05-10T21:46:46;21;19;15
57049;PMS7003;42935;50.966;16.992;2023-05-10T21:50:11;28;23;16
57049;PMS7003;42935;50.966;16.992;2023-05-10T21:53:58;29;24;17
57049;PMS7003;42935;50.966;16.992;2023-05-10T21:57:21;29;25;17
57049;PMS7003;42935;50.966;16.992;2023-05-10T22:00:42;26;23;16
57049;PMS7003;42935;50.966;16.992;2023-05-10T22:04:08;26;24;17
57049;PMS7003;42935;50.966;16.992;2023-05-10T22:07:31;25;21;16
57049;PMS7003;42935;50.966;16.992;2023-05-10T22:10:47;29;25;17
57049;PMS7003;42935;50.966;16.992;2023-05-10T22:14:05;29;26;17
57049;PMS7003;42935;50.966;16.992;2023-05-10T22:17:31;28;25;17
57049;PMS7003;42935;50.966;16.992;2023-05-10T22:20:53;26;24;17
57049;PMS7003;42935;50.966;16.992;2023-05-10T22:24:22;26;24;16
57049;PMS7003;42935;50.966;16.992;2023-05-10T22:27:42;25;23;15
57049;PMS7003;42935;50.966;16.992;2023-05-10T22:31:07;27;21;16
57049;PMS7003;42935;50.966;16.992;2023-05-10T22:34:26;26;21;15
57049;PMS7003;42935;50.966;16.992;2023-05-10T22:37:46;24;21;15
57049;PMS7003;42935;50.966;16.992;2023-05-10T22:41:06;22;18;13
57049;PMS7003;42935;50.966;16.992;2023-05-10T22:44:27;19;18;14
57049;PMS7003;42935;50.966;16.992;2023-05-10T22:47:47;22;19;13
57049;PMS7003;42935;50.966;16.992;2023-05-10T22:51:08;16;14;11
57049;PMS7003;42935;50.966;16.992;2023-05-10T22:54:27;19;17;12